createdAt,value
2022-10-13T00:00:26.193Z,1023.46
2022-10-13T00:00:56.816Z,1023.46
2022-10-13T00:01:27.416Z,1023.47
2022-10-13T00:01:57.956Z,1023.46
2022-10-13T00:02:28.523Z,1023.45
2022-10-13T00:02:59.103Z,1023.45
2022-10-13T00:03:29.674Z,1023.44
2022-10-13T00:04:00.268Z,1023.44
2022-10-13T00:04:30.905Z,1023.43
2022-10-13T00:05:01.459Z,1023.43
2022-10-13T00:05:32.008Z,1023.42
2022-10-13T00:06:02.589Z,1023.42
2022-10-13T00:06:33.142Z,1023.42
2022-10-13T00:07:03.714Z,1023.41
2022-10-13T00:07:34.290Z,1023.41
2022-10-13T00:08:04.841Z,1023.41
2022-10-13T00:08:35.404Z,1023.40
2022-10-13T00:09:05.982Z,1023.40
2022-10-13T00:09:36.552Z,1023.40
2022-10-13T00:10:07.110Z,1023.40
2022-10-13T00:10:37.700Z,1023.41
2022-10-13T00:11:08.252Z,1023.42
2022-10-13T00:11:38.843Z,1023.43
2022-10-13T00:12:09.407Z,1023.45
2022-10-13T00:12:39.970Z,1023.47
2022-10-13T00:13:10.918Z,1023.49
2022-10-13T00:13:41.481Z,1023.50
2022-10-13T00:14:12.074Z,1023.52
2022-10-13T00:14:42.635Z,1023.53
2022-10-13T00:15:13.194Z,1023.54
2022-10-13T00:15:43.790Z,1023.55
2022-10-13T00:16:14.345Z,1023.54
2022-10-13T00:16:44.928Z,1023.55
2022-10-13T00:17:15.481Z,1023.56
2022-10-13T00:17:46.050Z,1023.56
2022-10-13T00:18:16.644Z,1023.55
2022-10-13T00:18:47.194Z,1023.55
2022-10-13T00:19:17.758Z,1023.54
2022-10-13T00:19:48.309Z,1023.54
2022-10-13T00:20:18.862Z,1023.54
2022-10-13T00:20:49.449Z,1023.54
2022-10-13T00:21:20.027Z,1023.54
2022-10-13T00:21:50.579Z,1023.54
2022-10-13T00:22:21.476Z,1023.55
2022-10-13T00:22:51.707Z,1023.56
2022-10-13T00:23:22.228Z,1023.57
2022-10-13T00:23:52.787Z,1023.58
2022-10-13T00:24:23.361Z,1023.60
2022-10-13T00:24:53.916Z,1023.61
2022-10-13T00:25:24.491Z,1023.62
2022-10-13T00:25:55.053Z,1023.62
2022-10-13T00:26:25.656Z,1023.63
2022-10-13T00:26:56.242Z,1023.63
2022-10-13T00:27:26.785Z,1023.63
2022-10-13T00:27:57.343Z,1023.63
2022-10-13T00:28:27.940Z,1023.63
2022-10-13T00:28:58.534Z,1023.63
2022-10-13T00:29:29.111Z,1023.62
2022-10-13T00:29:59.675Z,1023.63
2022-10-13T00:30:30.219Z,1023.62
2022-10-13T00:31:00.773Z,1023.63
2022-10-13T00:31:31.345Z,1023.62
2022-10-13T00:32:01.894Z,1023.62
2022-10-13T00:32:32.480Z,1023.61
2022-10-13T00:33:03.047Z,1023.61
2022-10-13T00:33:33.593Z,1023.60
2022-10-13T00:34:04.173Z,1023.60
2022-10-13T00:34:34.745Z,1023.60
2022-10-13T00:35:05.347Z,1023.60
2022-10-13T00:35:35.892Z,1023.60
2022-10-13T00:36:06.454Z,1023.61
2022-10-13T00:36:37.004Z,1023.62
2022-10-13T00:37:07.576Z,1023.63
2022-10-13T00:37:38.163Z,1023.63
2022-10-13T00:38:08.739Z,1023.64
2022-10-13T00:38:39.308Z,1023.64
2022-10-13T00:39:09.879Z,1023.64
2022-10-13T00:39:40.405Z,1023.65
2022-10-13T00:40:10.976Z,1023.65
2022-10-13T00:40:41.536Z,1023.65
2022-10-13T00:41:12.109Z,1023.65
2022-10-13T00:41:42.680Z,1023.65
2022-10-13T00:42:13.253Z,1023.65
2022-10-13T00:42:43.808Z,1023.65
2022-10-13T00:43:14.352Z,1023.66
2022-10-13T00:43:44.921Z,1023.66
2022-10-13T00:44:15.501Z,1023.66
2022-10-13T00:44:46.070Z,1023.67
2022-10-13T00:45:16.595Z,1023.67
2022-10-13T00:45:47.134Z,1023.67
2022-10-13T00:46:17.711Z,1023.67
2022-10-13T00:46:48.282Z,1023.67
2022-10-13T00:47:18.849Z,1023.68
2022-10-13T00:47:49.401Z,1023.67
2022-10-13T00:48:19.989Z,1023.67
2022-10-13T00:48:50.572Z,1023.66
2022-10-13T00:49:21.221Z,1023.66
2022-10-13T00:49:51.744Z,1023.65
2022-10-13T00:50:22.417Z,1023.65
2022-10-13T00:50:52.948Z,1023.65
2022-10-13T00:51:23.488Z,1023.65
2022-10-13T00:51:54.068Z,1023.65
2022-10-13T00:52:24.633Z,1023.65
2022-10-13T00:52:55.183Z,1023.65
2022-10-13T00:53:25.757Z,1023.66
2022-10-13T00:53:56.315Z,1023.66
2022-10-13T00:54:26.863Z,1023.67
2022-10-13T00:54:57.434Z,1023.67
2022-10-13T00:55:28.027Z,1023.67
2022-10-13T00:55:58.602Z,1023.67
2022-10-13T00:56:29.174Z,1023.65
2022-10-13T00:56:59.730Z,1023.65
2022-10-13T00:57:30.278Z,1023.64
2022-10-13T00:58:04.956Z,1023.63
2022-10-13T00:58:31.837Z,1023.61
2022-10-13T00:59:02.414Z,1023.60
2022-10-13T00:59:32.989Z,1023.60
2022-10-13T01:00:03.516Z,1023.59
2022-10-13T01:00:34.169Z,1023.60
2022-10-13T01:01:04.775Z,1023.59
2022-10-13T01:01:35.323Z,1023.60
2022-10-13T01:02:05.863Z,1023.60
2022-10-13T01:02:36.437Z,1023.59
2022-10-13T01:03:06.988Z,1023.60
2022-10-13T01:03:37.539Z,1023.60
2022-10-13T01:04:08.124Z,1023.60
2022-10-13T01:04:38.743Z,1023.59
2022-10-13T01:05:09.318Z,1023.59
2022-10-13T01:05:39.931Z,1023.58
2022-10-13T01:06:10.459Z,1023.58
2022-10-13T01:06:41.006Z,1023.58
2022-10-13T01:07:11.584Z,1023.58
2022-10-13T01:07:42.133Z,1023.57
2022-10-13T01:08:12.673Z,1023.57
2022-10-13T01:08:43.214Z,1023.57
2022-10-13T01:09:13.823Z,1023.57
2022-10-13T01:09:44.424Z,1023.57
2022-10-13T01:10:14.982Z,1023.57
2022-10-13T01:10:45.527Z,1023.57
2022-10-13T01:11:16.118Z,1023.57
2022-10-13T01:11:46.672Z,1023.57
2022-10-13T01:12:17.635Z,1023.57
2022-10-13T01:12:47.885Z,1023.56
2022-10-13T01:13:18.449Z,1023.55
2022-10-13T01:13:48.978Z,1023.55
2022-10-13T01:14:19.520Z,1023.54
2022-10-13T01:14:50.058Z,1023.54
2022-10-13T01:15:20.618Z,1023.54
2022-10-13T01:15:51.149Z,1023.54
2022-10-13T01:16:21.752Z,1023.55
2022-10-13T01:16:52.293Z,1023.55
2022-10-13T01:17:22.831Z,1023.56
2022-10-13T01:17:53.401Z,1023.57
2022-10-13T01:18:23.983Z,1023.57
2022-10-13T01:18:54.549Z,1023.57
2022-10-13T01:19:25.124Z,1023.58
2022-10-13T01:19:55.689Z,1023.58
2022-10-13T01:20:26.258Z,1023.58
2022-10-13T01:20:56.809Z,1023.58
2022-10-13T01:21:27.362Z,1023.58
2022-10-13T01:21:57.939Z,1023.58
2022-10-13T01:22:28.510Z,1023.58
2022-10-13T01:22:59.091Z,1023.58
2022-10-13T01:23:29.671Z,1023.57
2022-10-13T01:24:00.235Z,1023.56
2022-10-13T01:24:30.790Z,1023.55
2022-10-13T01:25:01.342Z,1023.55
2022-10-13T01:25:31.893Z,1023.55
2022-10-13T01:26:02.425Z,1023.55
2022-10-13T01:26:32.995Z,1023.55
2022-10-13T01:27:03.535Z,1023.55
2022-10-13T01:27:34.117Z,1023.54
2022-10-13T01:28:04.693Z,1023.54
2022-10-13T01:28:35.303Z,1023.54
2022-10-13T01:29:05.868Z,1023.54
2022-10-13T01:29:36.420Z,1023.54
2022-10-13T01:30:07.003Z,1023.54
2022-10-13T01:30:37.533Z,1023.54
2022-10-13T01:31:08.085Z,1023.54
2022-10-13T01:31:38.635Z,1023.53
2022-10-13T01:32:09.191Z,1023.53
2022-10-13T01:32:39.782Z,1023.53
2022-10-13T01:33:10.363Z,1023.54
2022-10-13T01:33:40.942Z,1023.54
2022-10-13T01:34:11.482Z,1023.53
2022-10-13T01:34:42.045Z,1023.54
2022-10-13T01:35:12.594Z,1023.53
2022-10-13T01:35:43.166Z,1023.54
2022-10-13T01:36:13.780Z,1023.53
2022-10-13T01:36:44.306Z,1023.54
2022-10-13T01:37:14.857Z,1023.52
2022-10-13T01:37:45.423Z,1023.52
2022-10-13T01:38:15.994Z,1023.51
2022-10-13T01:38:46.586Z,1023.50
2022-10-13T01:39:17.151Z,1023.50
2022-10-13T01:39:47.728Z,1023.49
2022-10-13T01:40:18.278Z,1023.48
2022-10-13T01:40:48.853Z,1023.48
2022-10-13T01:41:19.394Z,1023.47
2022-10-13T01:41:49.968Z,1023.46
2022-10-13T01:42:20.908Z,1023.46
2022-10-13T01:42:51.178Z,1023.46
2022-10-13T01:43:21.759Z,1023.46
2022-10-13T01:43:52.349Z,1023.47
2022-10-13T01:44:22.903Z,1023.48
2022-10-13T01:44:53.470Z,1023.49
2022-10-13T01:45:24.030Z,1023.49
2022-10-13T01:45:54.577Z,1023.50
2022-10-13T01:46:25.141Z,1023.50
2022-10-13T01:46:55.726Z,1023.51
2022-10-13T01:47:26.298Z,1023.50
2022-10-13T01:47:56.846Z,1023.50
2022-10-13T01:48:27.425Z,1023.49
2022-10-13T01:48:57.993Z,1023.49
2022-10-13T01:49:28.555Z,1023.48
2022-10-13T01:49:59.124Z,1023.48
2022-10-13T01:50:29.687Z,1023.47
2022-10-13T01:51:00.231Z,1023.46
2022-10-13T01:51:30.807Z,1023.46
2022-10-13T01:52:01.356Z,1023.46
2022-10-13T01:52:31.943Z,1023.46
2022-10-13T01:53:02.486Z,1023.46
2022-10-13T01:53:33.033Z,1023.45
2022-10-13T01:54:03.649Z,1023.45
2022-10-13T01:54:34.207Z,1023.44
2022-10-13T01:55:04.788Z,1023.43
2022-10-13T01:55:35.369Z,1023.43
2022-10-13T01:56:05.928Z,1023.42
2022-10-13T01:56:36.464Z,1023.41
2022-10-13T01:57:07.018Z,1023.40
2022-10-13T01:57:37.576Z,1023.39
2022-10-13T01:58:08.139Z,1023.39
2022-10-13T01:58:38.685Z,1023.38
2022-10-13T01:59:09.285Z,1023.38
2022-10-13T01:59:39.830Z,1023.38
2022-10-13T02:00:10.427Z,1023.38
2022-10-13T02:00:41.054Z,1023.38
2022-10-13T02:01:11.634Z,1023.38
2022-10-13T02:01:42.179Z,1023.39
2022-10-13T02:02:12.747Z,1023.40
2022-10-13T02:02:43.308Z,1023.40
2022-10-13T02:03:13.885Z,1023.41
2022-10-13T02:03:44.478Z,1023.41
2022-10-13T02:04:15.042Z,1023.40
2022-10-13T02:04:45.624Z,1023.40
2022-10-13T02:05:16.188Z,1023.39
2022-10-13T02:05:46.768Z,1023.38
2022-10-13T02:06:17.359Z,1023.38
2022-10-13T02:06:47.945Z,1023.37
2022-10-13T02:07:18.478Z,1023.38
2022-10-13T02:07:49.064Z,1023.37
2022-10-13T02:08:19.634Z,1023.38
2022-10-13T02:08:50.181Z,1023.37
2022-10-13T02:09:20.753Z,1023.37
2022-10-13T02:09:51.354Z,1023.37
2022-10-13T02:10:21.933Z,1023.37
2022-10-13T02:10:52.472Z,1023.37
2022-10-13T02:11:23.033Z,1023.36
2022-10-13T02:11:53.573Z,1023.35
2022-10-13T02:12:24.130Z,1023.33
2022-10-13T02:12:54.676Z,1023.32
2022-10-13T02:13:25.258Z,1023.31
2022-10-13T02:13:55.781Z,1023.30
2022-10-13T02:14:26.325Z,1023.29
2022-10-13T02:14:56.911Z,1023.28
2022-10-13T02:15:27.486Z,1023.28
2022-10-13T02:15:58.080Z,1023.28
2022-10-13T02:16:28.610Z,1023.28
2022-10-13T02:16:59.202Z,1023.28
2022-10-13T02:17:29.787Z,1023.28
2022-10-13T02:18:00.363Z,1023.28
2022-10-13T02:18:30.894Z,1023.28
2022-10-13T02:19:01.474Z,1023.28
2022-10-13T02:19:32.013Z,1023.29
2022-10-13T02:20:02.601Z,1023.29
2022-10-13T02:20:33.197Z,1023.29
2022-10-13T02:21:03.739Z,1023.29
2022-10-13T02:21:34.322Z,1023.29
2022-10-13T02:22:04.952Z,1023.29
2022-10-13T02:22:35.482Z,1023.28
2022-10-13T02:23:06.081Z,1023.27
2022-10-13T02:23:36.633Z,1023.26
2022-10-13T02:24:07.197Z,1023.25
2022-10-13T02:24:37.769Z,1023.24
2022-10-13T02:25:08.335Z,1023.24
2022-10-13T02:25:38.865Z,1023.24
2022-10-13T02:26:09.414Z,1023.25
2022-10-13T02:26:39.993Z,1023.25
2022-10-13T02:27:10.568Z,1023.24
2022-10-13T02:27:41.120Z,1023.25
2022-10-13T02:28:11.736Z,1023.24
2022-10-13T02:28:42.371Z,1023.24
2022-10-13T02:29:12.902Z,1023.23
2022-10-13T02:29:43.459Z,1023.22
2022-10-13T02:30:14.042Z,1023.21
2022-10-13T02:30:44.615Z,1023.21
2022-10-13T02:31:15.200Z,1023.20
2022-10-13T02:31:45.762Z,1023.19
2022-10-13T02:32:16.765Z,1023.20
2022-10-13T02:32:47.052Z,1023.20
2022-10-13T02:33:17.615Z,1023.20
2022-10-13T02:33:48.171Z,1023.20
2022-10-13T02:34:18.751Z,1023.19
2022-10-13T02:34:49.299Z,1023.20
2022-10-13T02:35:19.854Z,1023.20
2022-10-13T02:35:50.413Z,1023.19
2022-10-13T02:36:20.992Z,1023.20
2022-10-13T02:36:51.547Z,1023.19
2022-10-13T02:37:22.146Z,1023.19
2022-10-13T02:37:52.695Z,1023.19
2022-10-13T02:38:23.239Z,1023.18
2022-10-13T02:38:53.777Z,1023.17
2022-10-13T02:39:24.351Z,1023.16
2022-10-13T02:39:54.935Z,1023.15
2022-10-13T02:40:25.491Z,1023.15
2022-10-13T02:40:56.037Z,1023.13
2022-10-13T02:41:26.626Z,1023.13
2022-10-13T02:41:57.224Z,1023.13
2022-10-13T02:42:27.793Z,1023.12
2022-10-13T02:42:58.667Z,1023.11
2022-10-13T02:43:29.274Z,1023.10
2022-10-13T02:43:59.852Z,1023.09
2022-10-13T02:44:30.402Z,1023.08
2022-10-13T02:45:00.958Z,1023.08
2022-10-13T02:45:31.528Z,1023.08
2022-10-13T02:46:02.053Z,1023.07
2022-10-13T02:46:32.655Z,1023.08
2022-10-13T02:47:03.210Z,1023.07
2022-10-13T02:47:33.752Z,1023.07
2022-10-13T02:48:04.289Z,1023.07
2022-10-13T02:48:34.819Z,1023.07
2022-10-13T02:49:05.381Z,1023.07
2022-10-13T02:49:35.953Z,1023.07
2022-10-13T02:50:06.503Z,1023.07
2022-10-13T02:50:37.076Z,1023.07
2022-10-13T02:51:07.639Z,1023.07
2022-10-13T02:51:40.452Z,1023.06
2022-10-13T02:52:09.111Z,1023.07
2022-10-13T02:52:39.788Z,1023.07
2022-10-13T02:53:10.317Z,1023.07
2022-10-13T02:53:40.876Z,1023.06
2022-10-13T02:54:11.408Z,1023.06
2022-10-13T02:54:41.961Z,1023.07
2022-10-13T02:55:12.550Z,1023.07
2022-10-13T02:55:43.127Z,1023.08
2022-10-13T02:56:13.662Z,1023.08
2022-10-13T02:56:44.207Z,1023.09
2022-10-13T02:57:14.786Z,1023.09
2022-10-13T02:57:45.361Z,1023.09
2022-10-13T02:58:15.910Z,1023.09
2022-10-13T02:58:46.478Z,1023.09
2022-10-13T02:59:17.035Z,1023.09
2022-10-13T02:59:47.634Z,1023.09
2022-10-13T03:00:18.198Z,1023.09
2022-10-13T03:00:48.823Z,1023.09
2022-10-13T03:01:19.424Z,1023.09
2022-10-13T03:01:50.028Z,1023.09
2022-10-13T03:02:21.048Z,1023.10
2022-10-13T03:02:51.335Z,1023.11
2022-10-13T03:03:21.907Z,1023.11
2022-10-13T03:03:52.489Z,1023.12
2022-10-13T03:04:23.048Z,1023.13
2022-10-13T03:04:53.614Z,1023.14
2022-10-13T03:05:24.192Z,1023.15
2022-10-13T03:05:54.759Z,1023.15
2022-10-13T03:06:25.310Z,1023.16
2022-10-13T03:06:55.883Z,1023.16
2022-10-13T03:07:26.462Z,1023.16
2022-10-13T03:07:57.026Z,1023.16
2022-10-13T03:08:27.581Z,1023.16
2022-10-13T03:08:58.117Z,1023.16
2022-10-13T03:09:28.674Z,1023.17
2022-10-13T03:09:59.265Z,1023.17
2022-10-13T03:10:29.858Z,1023.18
2022-10-13T03:11:00.423Z,1023.18
2022-10-13T03:11:31.006Z,1023.19
2022-10-13T03:12:01.592Z,1023.19
2022-10-13T03:12:32.135Z,1023.19
2022-10-13T03:13:02.717Z,1023.19
2022-10-13T03:13:33.285Z,1023.19
2022-10-13T03:14:03.812Z,1023.19
2022-10-13T03:14:34.342Z,1023.18
2022-10-13T03:15:04.913Z,1023.18
2022-10-13T03:15:35.496Z,1023.17
2022-10-13T03:16:06.040Z,1023.17
2022-10-13T03:16:36.618Z,1023.17
2022-10-13T03:17:11.124Z,1023.16
2022-10-13T03:17:37.971Z,1023.17
2022-10-13T03:18:08.528Z,1023.17
2022-10-13T03:18:39.093Z,1023.17
2022-10-13T03:19:09.618Z,1023.17
2022-10-13T03:19:40.188Z,1023.17
2022-10-13T03:20:10.726Z,1023.17
2022-10-13T03:20:41.262Z,1023.17
2022-10-13T03:21:11.813Z,1023.17
2022-10-13T03:21:42.385Z,1023.17
2022-10-13T03:22:12.921Z,1023.17
2022-10-13T03:22:47.361Z,1023.17
2022-10-13T03:23:14.416Z,1023.18
2022-10-13T03:23:44.962Z,1023.18
2022-10-13T03:24:15.500Z,1023.19
2022-10-13T03:24:46.085Z,1023.20
2022-10-13T03:25:16.655Z,1023.21
2022-10-13T03:25:47.230Z,1023.22
2022-10-13T03:26:17.789Z,1023.22
2022-10-13T03:26:48.321Z,1023.22
2022-10-13T03:27:18.897Z,1023.23
2022-10-13T03:27:49.458Z,1023.23
2022-10-13T03:28:20.084Z,1023.23
2022-10-13T03:28:50.731Z,1023.23
2022-10-13T03:29:21.291Z,1023.22
2022-10-13T03:29:51.847Z,1023.22
2022-10-13T03:30:22.395Z,1023.22
2022-10-13T03:30:52.967Z,1023.22
2022-10-13T03:31:23.492Z,1023.21
2022-10-13T03:31:54.068Z,1023.20
2022-10-13T03:32:24.639Z,1023.21
2022-10-13T03:32:55.176Z,1023.21
2022-10-13T03:33:25.737Z,1023.21
2022-10-13T03:33:56.331Z,1023.21
2022-10-13T03:34:26.908Z,1023.22
2022-10-13T03:34:57.442Z,1023.23
2022-10-13T03:35:28.021Z,1023.24
2022-10-13T03:35:58.594Z,1023.25
2022-10-13T03:36:29.170Z,1023.26
2022-10-13T03:36:59.701Z,1023.27
2022-10-13T03:37:30.261Z,1023.28
2022-10-13T03:38:00.797Z,1023.28
2022-10-13T03:38:31.548Z,1023.30
2022-10-13T03:39:02.080Z,1023.30
2022-10-13T03:39:32.638Z,1023.31
2022-10-13T03:40:03.201Z,1023.31
2022-10-13T03:40:33.811Z,1023.31
2022-10-13T03:41:04.344Z,1023.31
2022-10-13T03:41:34.910Z,1023.31
2022-10-13T03:42:05.476Z,1023.31
2022-10-13T03:42:36.022Z,1023.31
2022-10-13T03:43:06.570Z,1023.30
2022-10-13T03:43:37.164Z,1023.29
2022-10-13T03:44:07.688Z,1023.28
2022-10-13T03:44:38.245Z,1023.28
2022-10-13T03:45:08.772Z,1023.27
2022-10-13T03:45:39.321Z,1023.26
2022-10-13T03:46:09.908Z,1023.26
2022-10-13T03:46:40.460Z,1023.25
2022-10-13T03:47:11.029Z,1023.24
2022-10-13T03:47:41.805Z,1023.24
2022-10-13T03:48:12.368Z,1023.24
2022-10-13T03:48:42.910Z,1023.23
2022-10-13T03:49:13.473Z,1023.23
2022-10-13T03:49:44.513Z,1023.23
2022-10-13T03:50:15.069Z,1023.23
2022-10-13T03:50:45.616Z,1023.23
2022-10-13T03:51:16.177Z,1023.23
2022-10-13T03:51:46.732Z,1023.23
2022-10-13T03:52:17.731Z,1023.23
2022-10-13T03:52:47.990Z,1023.23
2022-10-13T03:53:18.658Z,1023.23
2022-10-13T03:53:49.268Z,1023.23
2022-10-13T03:54:19.793Z,1023.23
2022-10-13T03:54:50.377Z,1023.24
2022-10-13T03:55:20.934Z,1023.24
2022-10-13T03:55:51.479Z,1023.25
2022-10-13T03:56:22.069Z,1023.26
2022-10-13T03:56:52.638Z,1023.27
2022-10-13T03:57:23.207Z,1023.27
2022-10-13T03:57:53.777Z,1023.28
2022-10-13T03:58:24.328Z,1023.28
2022-10-13T03:58:54.883Z,1023.28
2022-10-13T03:59:25.410Z,1023.28
2022-10-13T03:59:55.959Z,1023.27
2022-10-13T04:00:26.490Z,1023.27
2022-10-13T04:00:57.025Z,1023.28
2022-10-13T04:01:27.669Z,1023.27
2022-10-13T04:01:58.245Z,1023.26
2022-10-13T04:02:28.790Z,1023.26
2022-10-13T04:02:59.335Z,1023.26
2022-10-13T04:03:29.892Z,1023.26
2022-10-13T04:04:00.438Z,1023.27
2022-10-13T04:04:31.006Z,1023.27
2022-10-13T04:05:01.588Z,1023.28
2022-10-13T04:05:32.155Z,1023.29
2022-10-13T04:06:02.710Z,1023.30
2022-10-13T04:06:33.289Z,1023.29
2022-10-13T04:07:03.810Z,1023.29
2022-10-13T04:07:34.369Z,1023.29
2022-10-13T04:08:04.949Z,1023.29
2022-10-13T04:08:35.512Z,1023.30
2022-10-13T04:09:06.110Z,1023.31
2022-10-13T04:09:36.636Z,1023.31
2022-10-13T04:10:11.270Z,1023.31
2022-10-13T04:10:37.911Z,1023.31
2022-10-13T04:11:08.474Z,1023.32
2022-10-13T04:11:39.040Z,1023.32
2022-10-13T04:12:09.634Z,1023.31
2022-10-13T04:12:40.212Z,1023.30
2022-10-13T04:13:10.765Z,1023.30
2022-10-13T04:13:41.339Z,1023.32
2022-10-13T04:14:11.916Z,1023.32
2022-10-13T04:14:42.437Z,1023.32
2022-10-13T04:15:13.021Z,1023.31
2022-10-13T04:15:43.585Z,1023.31
2022-10-13T04:16:14.154Z,1023.31
2022-10-13T04:16:44.707Z,1023.31
2022-10-13T04:17:15.245Z,1023.30
2022-10-13T04:17:45.786Z,1023.31
2022-10-13T04:18:16.359Z,1023.31
2022-10-13T04:18:46.896Z,1023.31
2022-10-13T04:19:17.421Z,1023.31
2022-10-13T04:19:47.993Z,1023.30
2022-10-13T04:20:18.553Z,1023.30
2022-10-13T04:20:49.122Z,1023.30
2022-10-13T04:21:19.687Z,1023.30
2022-10-13T04:21:50.221Z,1023.29
2022-10-13T04:22:21.085Z,1023.27
2022-10-13T04:22:51.369Z,1023.26
2022-10-13T04:23:21.958Z,1023.26
2022-10-13T04:23:52.563Z,1023.26
2022-10-13T04:24:23.150Z,1023.25
2022-10-13T04:24:53.715Z,1023.25
2022-10-13T04:25:24.254Z,1023.24
2022-10-13T04:25:54.833Z,1023.23
2022-10-13T04:26:25.425Z,1023.23
2022-10-13T04:26:56.019Z,1023.23
2022-10-13T04:27:26.586Z,1023.22
2022-10-13T04:27:57.162Z,1023.21
2022-10-13T04:28:27.729Z,1023.20
2022-10-13T04:28:58.300Z,1023.20
2022-10-13T04:29:28.886Z,1023.21
2022-10-13T04:29:59.429Z,1023.23
2022-10-13T04:30:29.995Z,1023.23
2022-10-13T04:31:00.544Z,1023.24
2022-10-13T04:31:31.117Z,1023.23
2022-10-13T04:32:01.648Z,1023.22
2022-10-13T04:32:32.240Z,1023.21
2022-10-13T04:33:02.820Z,1023.21
2022-10-13T04:33:33.373Z,1023.21
2022-10-13T04:34:03.935Z,1023.21
2022-10-13T04:34:34.495Z,1023.20
2022-10-13T04:35:05.042Z,1023.19
2022-10-13T04:35:35.611Z,1023.18
2022-10-13T04:36:06.167Z,1023.18
2022-10-13T04:36:36.720Z,1023.17
2022-10-13T04:37:07.286Z,1023.16
2022-10-13T04:37:40.546Z,1023.16
2022-10-13T04:38:08.600Z,1023.19
2022-10-13T04:38:39.161Z,1023.21
2022-10-13T04:39:09.720Z,1023.21
2022-10-13T04:39:40.319Z,1023.19
2022-10-13T04:40:10.847Z,1023.17
2022-10-13T04:40:41.429Z,1023.16
2022-10-13T04:41:11.980Z,1023.15
2022-10-13T04:41:42.537Z,1023.15
2022-10-13T04:42:13.074Z,1023.14
2022-10-13T04:42:43.638Z,1023.14
2022-10-13T04:43:14.237Z,1023.15
2022-10-13T04:43:44.806Z,1023.16
2022-10-13T04:44:15.355Z,1023.16
2022-10-13T04:44:45.912Z,1023.15
2022-10-13T04:45:16.496Z,1023.15
2022-10-13T04:45:47.089Z,1023.13
2022-10-13T04:46:17.630Z,1023.11
2022-10-13T04:46:48.193Z,1023.10
2022-10-13T04:47:18.764Z,1023.09
2022-10-13T04:47:49.308Z,1023.10
2022-10-13T04:48:19.901Z,1023.12
2022-10-13T04:48:50.465Z,1023.11
2022-10-13T04:49:21.006Z,1023.10
2022-10-13T04:49:51.579Z,1023.09
2022-10-13T04:50:22.155Z,1023.08
2022-10-13T04:50:52.682Z,1023.07
2022-10-13T04:51:23.242Z,1023.07
2022-10-13T04:51:53.785Z,1023.08
2022-10-13T04:52:24.341Z,1023.08
2022-10-13T04:52:54.878Z,1023.07
2022-10-13T04:53:25.465Z,1023.06
2022-10-13T04:53:56.032Z,1023.04
2022-10-13T04:54:26.607Z,1023.03
2022-10-13T04:54:57.191Z,1023.02
2022-10-13T04:55:27.745Z,1023.01
2022-10-13T04:55:58.282Z,1023.01
2022-10-13T04:56:28.860Z,1023.02
2022-10-13T04:56:59.415Z,1023.03
2022-10-13T04:57:29.978Z,1023.01
2022-10-13T04:58:00.522Z,1023.00
2022-10-13T04:58:31.093Z,1022.99
2022-10-13T04:59:01.698Z,1022.98
2022-10-13T04:59:32.265Z,1022.98
2022-10-13T05:00:02.845Z,1022.99
2022-10-13T05:00:33.482Z,1023.00
2022-10-13T05:01:04.079Z,1022.98
2022-10-13T05:01:34.640Z,1022.96
2022-10-13T05:02:05.192Z,1022.94
2022-10-13T05:02:35.723Z,1022.95
2022-10-13T05:03:06.351Z,1022.95
2022-10-13T05:03:36.959Z,1022.95
2022-10-13T05:04:07.549Z,1022.95
2022-10-13T05:04:38.110Z,1022.94
2022-10-13T05:05:08.663Z,1022.93
2022-10-13T05:05:39.243Z,1022.93
2022-10-13T05:06:09.791Z,1022.92
2022-10-13T05:06:58.914Z,1022.91
2022-10-13T05:07:17.948Z,1022.92
2022-10-13T05:07:41.943Z,1022.92
2022-10-13T05:08:12.532Z,1022.92
2022-10-13T05:08:43.116Z,1022.90
2022-10-13T05:09:13.650Z,1022.90
2022-10-13T05:09:44.246Z,1022.90
2022-10-13T05:10:14.896Z,1022.91
2022-10-13T05:10:45.444Z,1022.93
2022-10-13T05:11:16.121Z,1022.93
2022-10-13T05:11:46.692Z,1022.92
2022-10-13T05:12:17.543Z,1022.91
2022-10-13T05:12:48.254Z,1022.91
2022-10-13T05:13:18.792Z,1022.91
2022-10-13T05:13:50.526Z,1022.90
2022-10-13T05:14:20.518Z,1022.90
2022-10-13T05:14:51.586Z,1022.90
2022-10-13T05:15:22.155Z,1022.91
2022-10-13T05:15:52.695Z,1022.93
2022-10-13T05:16:23.718Z,1022.94
2022-10-13T05:16:54.773Z,1022.93
2022-10-13T05:17:25.317Z,1022.93
2022-10-13T05:17:55.833Z,1022.93
2022-10-13T05:18:26.390Z,1022.93
2022-10-13T05:18:56.892Z,1022.92
2022-10-13T05:19:27.444Z,1022.92
2022-10-13T05:19:57.944Z,1022.92
2022-10-13T05:20:28.467Z,1022.92
2022-10-13T05:20:59.504Z,1022.91
2022-10-13T05:21:30.530Z,1022.91
2022-10-13T05:22:01.058Z,1022.92
2022-10-13T05:22:32.059Z,1022.93
2022-10-13T05:23:03.058Z,1022.93
2022-10-13T05:23:34.113Z,1022.92
2022-10-13T05:24:05.136Z,1022.88
2022-10-13T05:24:36.192Z,1022.88
2022-10-13T05:25:06.700Z,1022.87
2022-10-13T05:25:37.713Z,1022.87
2022-10-13T05:26:08.724Z,1022.90
2022-10-13T05:26:39.247Z,1022.92
2022-10-13T05:27:10.254Z,1022.92
2022-10-13T05:27:41.291Z,1022.91
2022-10-13T05:28:12.462Z,1022.89
2022-10-13T05:28:43.026Z,1022.88
2022-10-13T05:29:13.544Z,1022.86
2022-10-13T05:29:44.561Z,1022.86
2022-10-13T05:30:15.080Z,1022.85
2022-10-13T05:30:46.099Z,1022.86
2022-10-13T05:31:16.621Z,1022.86
2022-10-13T05:31:47.649Z,1022.86
2022-10-13T05:32:19.061Z,1022.84
2022-10-13T05:32:53.687Z,1022.83
2022-10-13T05:33:20.359Z,1022.83
2022-10-13T05:33:50.873Z,1022.82
2022-10-13T05:34:21.402Z,1022.81
2022-10-13T05:34:52.430Z,1022.81
2022-10-13T05:35:23.443Z,1022.81
2022-10-13T05:35:54.446Z,1022.81
2022-10-13T05:36:24.982Z,1022.81
2022-10-13T05:36:55.507Z,1022.82
2022-10-13T05:37:26.556Z,1022.82
2022-10-13T05:37:57.058Z,1022.82
2022-10-13T05:38:28.059Z,1022.83
2022-10-13T05:38:58.580Z,1022.83
2022-10-13T05:39:29.615Z,1022.83
2022-10-13T05:40:00.136Z,1022.84
2022-10-13T05:40:31.177Z,1022.84
2022-10-13T05:41:01.716Z,1022.85
2022-10-13T05:41:32.718Z,1022.85
2022-10-13T05:42:03.746Z,1022.86
2022-10-13T05:42:34.269Z,1022.86
2022-10-13T05:43:04.800Z,1022.86
2022-10-13T05:43:35.324Z,1022.88
2022-10-13T05:44:05.845Z,1022.89
2022-10-13T05:44:36.915Z,1022.91
2022-10-13T05:45:07.440Z,1022.92
2022-10-13T05:45:38.437Z,1022.92
2022-10-13T05:46:08.968Z,1022.92
2022-10-13T05:46:39.492Z,1022.91
2022-10-13T05:47:10.017Z,1022.91
2022-10-13T05:47:41.027Z,1022.90
2022-10-13T05:48:11.564Z,1022.90
2022-10-13T05:48:42.067Z,1022.89
2022-10-13T05:49:13.093Z,1022.89
2022-10-13T05:49:43.628Z,1022.88
2022-10-13T05:50:14.625Z,1022.88
2022-10-13T05:50:45.178Z,1022.86
2022-10-13T05:51:15.709Z,1022.86
2022-10-13T05:51:46.747Z,1022.86
2022-10-13T05:52:17.668Z,1022.86
2022-10-13T05:52:47.831Z,1022.87
2022-10-13T05:53:18.846Z,1022.87
2022-10-13T05:53:52.946Z,1022.87
2022-10-13T05:54:20.093Z,1022.87
2022-10-13T05:54:51.143Z,1022.87
2022-10-13T05:55:21.679Z,1022.87
2022-10-13T05:55:52.687Z,1022.87
2022-10-13T05:56:23.731Z,1022.86
2022-10-13T05:56:54.733Z,1022.86
2022-10-13T05:57:25.759Z,1022.86
2022-10-13T05:57:56.789Z,1022.87
2022-10-13T05:58:27.823Z,1022.87
2022-10-13T05:58:58.846Z,1022.88
2022-10-13T05:59:29.360Z,1022.89
2022-10-13T06:00:00.412Z,1022.90
2022-10-13T06:00:30.931Z,1022.91
2022-10-13T06:01:01.957Z,1022.92
2022-10-13T06:01:33.071Z,1022.92
2022-10-13T06:02:03.596Z,1022.91
2022-10-13T06:02:34.099Z,1022.91
2022-10-13T06:03:04.621Z,1022.91
2022-10-13T06:03:35.630Z,1022.91
2022-10-13T06:04:06.658Z,1022.92
2022-10-13T06:04:37.677Z,1022.92
2022-10-13T06:05:08.695Z,1022.91
2022-10-13T06:05:39.688Z,1022.89
2022-10-13T06:06:10.729Z,1022.88
2022-10-13T06:06:41.271Z,1022.87
2022-10-13T06:07:12.296Z,1022.86
2022-10-13T06:07:43.299Z,1022.87
2022-10-13T06:08:14.341Z,1022.88
2022-10-13T06:08:45.402Z,1022.87
2022-10-13T06:09:15.920Z,1022.87
2022-10-13T06:09:46.975Z,1022.87
2022-10-13T06:10:17.475Z,1022.86